createdAt,value
2023-05-07T00:01:24.169Z,10.40
2023-05-07T00:03:51.084Z,10.30
2023-05-07T00:06:18.121Z,10.30
2023-05-07T00:08:44.835Z,10.30
2023-05-07T00:11:11.622Z,10.10
2023-05-07T00:13:38.320Z,10.20
2023-05-07T00:16:05.658Z,10.20
2023-05-07T00:18:32.439Z,10.20
2023-05-07T00:20:59.348Z,10.30
2023-05-07T00:23:26.025Z,10.30
2023-05-07T00:25:52.683Z,10.30
2023-05-07T00:28:19.369Z,10.30
2023-05-07T00:30:46.134Z,10.20
2023-05-07T00:33:12.944Z,10.20
2023-05-07T00:35:39.636Z,10.20
2023-05-07T00:38:06.342Z,10.30
2023-05-07T00:40:33.103Z,10.30
2023-05-07T00:43:00.827Z,10.40
2023-05-07T00:45:29.325Z,10.40
2023-05-07T00:48:00.212Z,10.50
2023-05-07T00:50:28.374Z,10.40
2023-05-07T00:52:55.764Z,10.40
2023-05-07T00:55:24.181Z,10.50
2023-05-07T00:57:51.786Z,10.40
2023-05-07T01:00:18.937Z,10.30
2023-05-07T01:02:45.725Z,10.40
2023-05-07T01:05:15.597Z,10.40
2023-05-07T01:07:43.369Z,10.30
2023-05-07T01:10:11.730Z,10.40
2023-05-07T01:12:41.337Z,10.40
2023-05-07T01:15:10.018Z,10.30
2023-05-07T01:17:38.716Z,10.40
2023-05-07T01:20:08.594Z,10.30
2023-05-07T01:22:37.738Z,10.40
2023-05-07T01:25:09.045Z,10.30
2023-05-07T01:27:38.559Z,10.20
2023-05-07T01:30:06.350Z,10.20
2023-05-07T01:32:47.222Z,10.10
2023-05-07T01:35:20.774Z,10.10
2023-05-07T01:37:48.947Z,10.00
2023-05-07T01:40:16.011Z,10.10
2023-05-07T01:42:44.612Z,10.20
2023-05-07T01:45:12.287Z,10.20
2023-05-07T01:47:40.057Z,10.30
2023-05-07T01:50:09.687Z,10.20
2023-05-07T01:52:39.158Z,10.20
2023-05-07T01:55:07.086Z,10.10
2023-05-07T01:57:34.076Z,10.10
2023-05-07T02:00:00.837Z,10.00
2023-05-07T02:02:27.614Z,10.00
2023-05-07T02:04:57.605Z,10.10
2023-05-07T02:07:25.506Z,10.00
2023-05-07T02:09:53.181Z,10.00
2023-05-07T02:12:20.003Z,10.00
2023-05-07T02:14:47.216Z,10.00
2023-05-07T02:17:19.760Z,10.00
2023-05-07T02:19:46.666Z,10.00
2023-05-07T02:22:13.375Z,9.90
2023-05-07T02:24:40.030Z,9.70
2023-05-07T02:27:06.747Z,9.70
2023-05-07T02:29:33.529Z,9.70
2023-05-07T02:32:00.338Z,9.80
2023-05-07T02:34:27.370Z,9.90
2023-05-07T02:36:54.088Z,9.90
2023-05-07T02:39:24.120Z,9.90
2023-05-07T02:41:50.786Z,9.70
2023-05-07T02:44:17.526Z,9.70
2023-05-07T02:46:47.294Z,9.60
2023-05-07T02:49:14.028Z,9.70
2023-05-07T02:51:40.877Z,9.70
2023-05-07T02:54:12.581Z,9.60
2023-05-07T02:56:39.364Z,9.60
2023-05-07T02:59:06.153Z,9.50
2023-05-07T03:01:37.776Z,9.40
2023-05-07T03:04:07.138Z,9.40
2023-05-07T03:06:33.924Z,9.40
2023-05-07T03:09:00.804Z,9.40
2023-05-07T03:11:27.905Z,9.30
2023-05-07T03:13:54.597Z,9.40
2023-05-07T03:16:22.456Z,9.40
2023-05-07T03:18:49.333Z,9.40
2023-05-07T03:21:16.102Z,9.40
2023-05-07T03:23:43.075Z,9.40
2023-05-07T03:26:09.744Z,9.50
2023-05-07T03:28:36.524Z,9.40
2023-05-07T03:31:06.204Z,9.40
2023-05-07T03:33:39.759Z,9.40
2023-05-07T03:36:06.712Z,9.40
2023-05-07T03:38:33.559Z,9.40
2023-05-07T03:41:00.481Z,9.40
2023-05-07T03:43:27.250Z,9.40
2023-05-07T03:46:01.479Z,9.40
2023-05-07T03:48:29.355Z,9.20
2023-05-07T03:51:01.432Z,9.10
2023-05-07T03:53:32.288Z,9.20
2023-05-07T03:55:58.999Z,9.20
2023-05-07T03:58:25.956Z,9.20
2023-05-07T04:00:54.555Z,9.30
2023-05-07T04:03:27.831Z,9.40
2023-05-07T04:05:57.617Z,9.30
2023-05-07T04:08:24.395Z,9.20
2023-05-07T04:10:58.093Z,9.20
2023-05-07T04:13:27.682Z,9.10
2023-05-07T04:15:57.931Z,9.00
2023-05-07T04:18:25.999Z,9.00
2023-05-07T04:20:52.908Z,9.00
2023-05-07T04:23:19.629Z,9.00
2023-05-07T04:25:46.526Z,9.00
2023-05-07T04:28:31.577Z,9.00
2023-05-07T04:30:58.910Z,9.00
2023-05-07T04:33:26.121Z,9.10
2023-05-07T04:35:53.242Z,9.10
2023-05-07T04:38:19.930Z,9.10
2023-05-07T04:40:49.320Z,9.10
2023-05-07T04:43:20.758Z,9.20
2023-05-07T04:45:53.422Z,9.20
2023-05-07T04:48:22.580Z,9.20
2023-05-07T04:50:53.575Z,9.30
2023-05-07T04:53:22.297Z,9.20
2023-05-07T04:55:55.485Z,9.30
2023-05-07T04:58:22.257Z,9.40
2023-05-07T05:00:48.897Z,9.50
2023-05-07T05:03:15.695Z,9.60
2023-05-07T05:05:42.853Z,9.60
2023-05-07T05:08:09.847Z,9.80
2023-05-07T05:10:39.366Z,9.90
2023-05-07T05:13:07.155Z,10.00
2023-05-07T05:15:34.120Z,10.10
2023-05-07T05:18:02.987Z,10.20
2023-05-07T05:20:31.140Z,10.40
2023-05-07T05:22:57.776Z,10.50
2023-05-07T05:25:24.455Z,10.60
2023-05-07T05:27:51.726Z,10.70
2023-05-07T05:30:19.562Z,10.90
2023-05-07T05:32:47.499Z,11.10
2023-05-07T05:35:14.855Z,11.20
2023-05-07T05:37:42.716Z,11.30
2023-05-07T05:40:10.263Z,11.40
2023-05-07T05:42:37.286Z,11.50
2023-05-07T05:45:04.831Z,11.60
2023-05-07T05:47:33.358Z,11.80
2023-05-07T05:50:01.301Z,12.10
2023-05-07T05:52:28.209Z,12.30
2023-05-07T05:54:56.374Z,12.50
2023-05-07T05:57:23.583Z,12.70
2023-05-07T05:59:50.793Z,12.70
2023-05-07T06:02:17.654Z,12.80
2023-05-07T06:04:45.086Z,12.90
2023-05-07T06:07:16.592Z,13.00
2023-05-07T06:09:43.339Z,13.10
2023-05-07T06:12:10.202Z,13.20
2023-05-07T06:14:37.372Z,13.00
2023-05-07T06:17:04.642Z,13.10
2023-05-07T06:19:31.947Z,13.40
2023-05-07T06:22:02.242Z,13.60
2023-05-07T06:24:30.571Z,13.80
2023-05-07T06:26:59.268Z,13.90
2023-05-07T06:29:27.216Z,14.00
2023-05-07T06:31:54.834Z,14.10
2023-05-07T06:34:22.968Z,14.30
2023-05-07T06:36:49.862Z,14.30
2023-05-07T06:39:26.337Z,14.30
2023-05-07T06:41:53.043Z,13.80
2023-05-07T06:44:30.939Z,14.00
2023-05-07T06:47:07.621Z,13.80
2023-05-07T06:49:35.682Z,13.90
2023-05-07T06:52:02.418Z,13.90
2023-05-07T06:54:29.975Z,14.20
2023-05-07T06:56:56.864Z,14.60
2023-05-07T06:59:25.674Z,14.90
2023-05-07T07:01:53.208Z,14.90
2023-05-07T07:04:20.287Z,14.80
2023-05-07T07:06:55.324Z,15.00
2023-05-07T07:09:23.950Z,15.20
2023-05-07T07:11:51.397Z,15.40
2023-05-07T07:14:18.176Z,15.60
2023-05-07T07:16:49.157Z,15.80
2023-05-07T07:19:17.949Z,16.10
2023-05-07T07:21:46.375Z,16.40
2023-05-07T07:24:19.895Z,16.60
2023-05-07T07:26:47.082Z,16.60
2023-05-07T07:29:14.054Z,16.80
2023-05-07T07:31:42.299Z,16.80
2023-05-07T07:34:09.935Z,16.90
2023-05-07T07:36:45.713Z,16.90
2023-05-07T07:39:15.784Z,17.10
2023-05-07T07:41:42.898Z,17.30
2023-05-07T07:44:15.423Z,17.50
2023-05-07T07:46:42.919Z,17.60
2023-05-07T07:49:09.711Z,17.50
2023-05-07T07:51:36.474Z,17.70
2023-05-07T07:54:03.815Z,17.80
2023-05-07T07:56:34.583Z,18.00
2023-05-07T07:59:02.511Z,18.20
2023-05-07T08:01:31.368Z,18.30
2023-05-07T08:03:59.814Z,18.30
2023-05-07T08:06:27.803Z,18.30
2023-05-07T08:08:54.663Z,18.30
2023-05-07T08:11:22.507Z,18.50
2023-05-07T08:13:49.948Z,18.60
2023-05-07T08:16:16.929Z,18.70
2023-05-07T08:18:43.663Z,18.90
2023-05-07T08:21:10.368Z,18.90
2023-05-07T08:23:37.072Z,18.90
2023-05-07T08:26:04.874Z,19.00
2023-05-07T08:28:32.075Z,19.00
2023-05-07T08:31:00.892Z,19.10
2023-05-07T08:33:30.469Z,19.20
2023-05-07T08:35:57.576Z,19.30
2023-05-07T08:38:24.249Z,19.20
2023-05-07T08:40:51.352Z,19.30
2023-05-07T08:43:20.842Z,19.20
2023-05-07T08:45:50.279Z,19.40
2023-05-07T08:48:21.232Z,19.50
2023-05-07T08:50:54.059Z,19.50
2023-05-07T08:53:21.953Z,19.30
2023-05-07T08:55:50.005Z,19.30
2023-05-07T08:58:16.703Z,19.40
2023-05-07T09:00:44.307Z,19.60
2023-05-07T09:03:15.259Z,19.80
2023-05-07T09:05:45.655Z,20.10
2023-05-07T09:08:17.111Z,20.10
2023-05-07T09:10:45.900Z,20.10
2023-05-07T09:13:15.385Z,20.20
2023-05-07T09:15:42.377Z,20.30
2023-05-07T09:18:09.941Z,20.40
2023-05-07T09:20:39.442Z,19.60
2023-05-07T09:23:09.842Z,19.50
2023-05-07T09:25:38.099Z,19.80
2023-05-07T09:28:14.563Z,19.30
2023-05-07T09:30:41.549Z,19.20
2023-05-07T09:33:10.970Z,19.40
2023-05-07T09:35:41.365Z,19.70
2023-05-07T09:38:13.936Z,20.00
2023-05-07T09:40:41.022Z,20.20
2023-05-07T09:43:14.688Z,20.40
2023-05-07T09:45:52.363Z,20.10
2023-05-07T09:48:21.595Z,19.70
2023-05-07T09:50:56.205Z,19.80
2023-05-07T09:53:25.345Z,20.20
2023-05-07T09:55:52.875Z,20.40
2023-05-07T09:58:23.876Z,20.50
2023-05-07T10:00:52.219Z,20.50
2023-05-07T10:03:21.272Z,20.80
2023-05-07T10:06:02.414Z,21.00
2023-05-07T10:08:31.538Z,21.20
2023-05-07T10:11:01.126Z,21.20
2023-05-07T10:13:30.305Z,21.20
2023-05-07T10:15:59.338Z,21.40
2023-05-07T10:18:34.227Z,21.40
2023-05-07T10:21:18.647Z,21.30
2023-05-07T10:23:54.518Z,21.40
2023-05-07T10:26:23.507Z,21.50
2023-05-07T10:28:54.086Z,21.50
2023-05-07T10:31:35.675Z,21.40
2023-05-07T10:34:09.198Z,21.20
2023-05-07T10:36:38.464Z,21.40
2023-05-07T10:39:07.577Z,21.60
2023-05-07T10:41:35.244Z,21.70
2023-05-07T10:44:04.282Z,21.60
2023-05-07T10:46:36.371Z,21.70
2023-05-07T10:49:17.918Z,21.80
2023-05-07T10:52:16.791Z,21.80
2023-05-07T10:55:19.795Z,21.80
2023-05-07T10:58:32.115Z,21.60
2023-05-07T11:01:52.879Z,21.20
2023-05-07T11:04:27.273Z,21.00
2023-05-07T11:07:09.977Z,21.00
2023-05-07T11:09:54.108Z,21.00
2023-05-07T11:12:37.317Z,21.30
2023-05-07T11:15:12.524Z,21.60
2023-05-07T11:18:00.402Z,22.00
2023-05-07T11:20:45.420Z,22.20
2023-05-07T11:23:35.605Z,22.30
2023-05-07T11:26:21.406Z,22.20
2023-05-07T11:28:49.793Z,22.00
2023-05-07T11:31:22.584Z,22.00
2023-05-07T11:33:50.041Z,22.10
2023-05-07T11:36:21.525Z,22.20
2023-05-07T11:38:49.367Z,22.20
2023-05-07T11:41:17.202Z,22.30
2023-05-07T11:44:04.563Z,22.30
2023-05-07T11:46:31.489Z,22.10
2023-05-07T11:48:58.467Z,22.10
2023-05-07T11:51:27.686Z,22.10
2023-05-07T11:53:54.874Z,21.70
2023-05-07T11:56:21.747Z,21.30
2023-05-07T11:58:49.469Z,21.10
2023-05-07T12:01:17.390Z,21.20
2023-05-07T12:03:48.259Z,21.30
2023-05-07T12:06:18.118Z,21.30
2023-05-07T12:08:47.933Z,21.30
2023-05-07T12:11:18.728Z,21.30
2023-05-07T12:13:45.859Z,21.30
2023-05-07T12:16:13.272Z,21.30
2023-05-07T12:18:40.840Z,21.30
2023-05-07T12:21:07.929Z,21.20
2023-05-07T12:23:37.081Z,21.10
2023-05-07T12:26:07.211Z,21.00
2023-05-07T12:28:39.687Z,21.00
2023-05-07T12:31:06.965Z,21.10
2023-05-07T12:33:35.210Z,21.00
2023-05-07T12:36:06.684Z,20.90
2023-05-07T12:38:37.973Z,20.90
2023-05-07T12:41:05.304Z,20.90
2023-05-07T12:43:32.140Z,20.70
2023-05-07T12:46:02.422Z,20.70
2023-05-07T12:48:29.376Z,20.50
2023-05-07T12:50:57.532Z,20.60
2023-05-07T12:53:26.286Z,20.60
2023-05-07T12:55:57.988Z,20.60
2023-05-07T12:58:28.715Z,20.50
2023-05-07T13:01:00.885Z,20.40
2023-05-07T13:03:39.423Z,20.30
2023-05-07T13:06:11.502Z,20.30
2023-05-07T13:08:45.475Z,20.30
2023-05-07T13:11:13.266Z,20.30
2023-05-07T13:13:41.288Z,20.30
2023-05-07T13:16:10.160Z,20.20
2023-05-07T13:18:37.628Z,20.10
2023-05-07T13:21:04.865Z,20.10
2023-05-07T13:23:31.690Z,20.00
2023-05-07T13:25:58.371Z,20.00
2023-05-07T13:28:25.724Z,19.80
2023-05-07T13:30:54.176Z,19.90
2023-05-07T13:33:20.996Z,19.80
2023-05-07T13:35:47.771Z,19.20
2023-05-07T13:38:16.827Z,18.80
2023-05-07T13:40:43.584Z,18.50
2023-05-07T13:43:10.259Z,18.30
2023-05-07T13:45:36.976Z,18.00
2023-05-07T13:48:03.963Z,17.70
2023-05-07T13:50:30.982Z,17.70
2023-05-07T13:52:57.828Z,17.80
2023-05-07T13:55:25.386Z,18.00
2023-05-07T13:57:59.920Z,18.40
2023-05-07T14:00:27.741Z,18.70
2023-05-07T14:02:55.820Z,18.90
2023-05-07T14:05:25.978Z,19.10
2023-05-07T14:07:53.029Z,19.40
2023-05-07T14:10:20.309Z,19.70
2023-05-07T14:12:47.754Z,19.90
2023-05-07T14:15:17.005Z,20.30
2023-05-07T14:17:44.403Z,20.70
2023-05-07T14:20:12.189Z,21.00
2023-05-07T14:22:39.072Z,21.40
2023-05-07T14:25:07.361Z,21.60
2023-05-07T14:27:34.241Z,22.10
2023-05-07T14:30:00.919Z,22.30
2023-05-07T14:32:27.628Z,22.50
2023-05-07T14:34:54.451Z,22.60
2023-05-07T14:37:21.250Z,22.90
2023-05-07T14:39:50.734Z,23.00
2023-05-07T14:42:18.567Z,23.40
2023-05-07T14:44:46.587Z,23.40
2023-05-07T14:47:13.922Z,23.50
2023-05-07T14:49:41.776Z,23.80
2023-05-07T14:52:10.848Z,24.10
2023-05-07T14:54:38.903Z,24.30
2023-05-07T14:57:06.865Z,24.40
2023-05-07T14:59:33.610Z,24.00
2023-05-07T15:02:00.481Z,23.60
2023-05-07T15:04:27.342Z,22.90
2023-05-07T15:06:54.921Z,22.40
2023-05-07T15:09:21.637Z,22.00
2023-05-07T15:11:48.328Z,21.80
2023-05-07T15:14:16.250Z,21.50
2023-05-07T15:16:44.623Z,21.20
2023-05-07T15:19:11.525Z,21.10
2023-05-07T15:21:38.167Z,21.00
2023-05-07T15:24:05.046Z,20.90
2023-05-07T15:26:31.787Z,20.80
2023-05-07T15:28:58.498Z,20.80
2023-05-07T15:31:26.588Z,20.80
2023-05-07T15:33:53.513Z,20.80
2023-05-07T15:36:21.397Z,20.90
2023-05-07T15:38:48.156Z,21.00
2023-05-07T15:41:15.093Z,21.00
2023-05-07T15:43:47.594Z,21.10
2023-05-07T15:46:19.351Z,21.00
2023-05-07T15:48:46.302Z,20.90
2023-05-07T15:51:13.705Z,20.70
2023-05-07T15:53:41.155Z,20.60
2023-05-07T15:56:07.866Z,20.50
2023-05-07T15:58:35.774Z,20.30
2023-05-07T16:01:02.932Z,20.10
2023-05-07T16:03:29.837Z,19.90
2023-05-07T16:06:02.426Z,19.80
2023-05-07T16:08:29.400Z,19.60
2023-05-07T16:10:56.163Z,19.40
2023-05-07T16:13:24.711Z,19.20
2023-05-07T16:15:58.398Z,19.00
2023-05-07T16:18:25.296Z,18.80
2023-05-07T16:20:52.161Z,18.70
2023-05-07T16:23:19.258Z,18.60
2023-05-07T16:25:46.058Z,18.50
2023-05-07T16:28:12.806Z,18.30
2023-05-07T16:30:39.522Z,18.20
2023-05-07T16:33:06.729Z,18.20
2023-05-07T16:35:33.411Z,18.10
2023-05-07T16:38:00.259Z,18.00
2023-05-07T16:40:27.218Z,17.90
2023-05-07T16:42:55.548Z,17.80
2023-05-07T16:45:23.153Z,17.80
2023-05-07T16:47:49.999Z,17.70
2023-05-07T16:50:16.795Z,17.60
2023-05-07T16:52:43.443Z,17.50
2023-05-07T16:55:10.724Z,17.40
2023-05-07T16:57:37.988Z,17.30
2023-05-07T17:00:07.323Z,17.20
2023-05-07T17:02:35.611Z,17.20
2023-05-07T17:05:02.526Z,17.20
2023-05-07T17:07:29.296Z,17.20
2023-05-07T17:09:55.970Z,17.20
2023-05-07T17:12:22.771Z,17.20
2023-05-07T17:14:49.599Z,17.20
2023-05-07T17:17:16.315Z,17.20
2023-05-07T17:19:43.975Z,17.20
2023-05-07T17:22:10.644Z,17.00
2023-05-07T17:24:37.310Z,16.80
2023-05-07T17:27:04.071Z,16.60
2023-05-07T17:29:30.962Z,16.50
2023-05-07T17:31:57.717Z,16.50
2023-05-07T17:34:24.465Z,16.10
2023-05-07T17:36:51.273Z,16.00
2023-05-07T17:39:17.944Z,15.90
2023-05-07T17:41:44.577Z,15.80
2023-05-07T17:44:11.237Z,15.80
2023-05-07T17:46:37.907Z,15.60
2023-05-07T17:49:04.744Z,15.60
2023-05-07T17:51:38.982Z,15.50
2023-05-07T17:54:12.834Z,15.40
2023-05-07T17:56:40.678Z,15.20
2023-05-07T17:59:07.368Z,15.10
2023-05-07T18:01:34.405Z,15.00
2023-05-07T18:04:02.089Z,14.90
2023-05-07T18:06:28.885Z,14.70
2023-05-07T18:08:56.712Z,14.60
2023-05-07T18:11:24.494Z,14.50
2023-05-07T18:13:51.178Z,14.50
2023-05-07T18:16:19.287Z,14.30
2023-05-07T18:18:46.890Z,14.20
2023-05-07T18:21:18.819Z,14.30
2023-05-07T18:23:46.662Z,14.10
2023-05-07T18:26:13.713Z,14.00
2023-05-07T18:28:40.595Z,13.90
2023-05-07T18:31:07.350Z,13.80
2023-05-07T18:33:34.142Z,13.60
2023-05-07T18:36:00.897Z,13.50
2023-05-07T18:38:27.642Z,13.40
2023-05-07T18:40:59.996Z,13.30
2023-05-07T18:43:26.683Z,13.20
2023-05-07T18:45:53.427Z,13.10
2023-05-07T18:48:20.150Z,13.20
2023-05-07T18:50:47.861Z,13.20
2023-05-07T18:53:14.589Z,13.00
2023-05-07T18:55:41.373Z,12.90
2023-05-07T18:58:08.136Z,12.90
2023-05-07T19:00:34.999Z,12.90
2023-05-07T19:03:01.905Z,13.00
2023-05-07T19:05:28.668Z,13.10
2023-05-07T19:07:55.343Z,13.00
2023-05-07T19:10:22.291Z,12.90
2023-05-07T19:12:51.210Z,13.00
2023-05-07T19:15:17.885Z,13.00
2023-05-07T19:17:44.581Z,12.90
2023-05-07T19:20:11.748Z,12.90
2023-05-07T19:22:38.397Z,12.90
2023-05-07T19:25:05.593Z,13.00
2023-05-07T19:27:32.369Z,13.00
2023-05-07T19:29:59.196Z,13.00
2023-05-07T19:32:26.418Z,13.00
2023-05-07T19:34:53.214Z,13.00
2023-05-07T19:37:23.945Z,13.00
2023-05-07T19:39:50.892Z,13.00
2023-05-07T19:42:17.554Z,13.10
2023-05-07T19:44:44.243Z,13.10
2023-05-07T19:47:10.900Z,13.10
2023-05-07T19:49:37.907Z,13.10
2023-05-07T19:52:04.831Z,13.10
2023-05-07T19:54:31.517Z,13.10
2023-05-07T19:56:58.162Z,13.10
2023-05-07T19:59:24.827Z,13.10
2023-05-07T20:01:51.673Z,13.10
2023-05-07T20:04:21.804Z,13.20
2023-05-07T20:06:48.472Z,13.20
2023-05-07T20:09:15.282Z,13.20
2023-05-07T20:11:42.016Z,13.10
2023-05-07T20:14:10.037Z,13.20
2023-05-07T20:16:36.794Z,13.00
2023-05-07T20:19:03.603Z,12.70
2023-05-07T20:21:30.296Z,12.40
2023-05-07T20:23:57.997Z,12.30
2023-05-07T20:26:24.746Z,12.30
2023-05-07T20:28:51.409Z,12.20
2023-05-07T20:31:18.300Z,12.20
2023-05-07T20:33:44.970Z,12.30
2023-05-07T20:36:11.651Z,12.40
2023-05-07T20:38:38.303Z,12.50
2023-05-07T20:41:09.830Z,12.60
2023-05-07T20:43:39.720Z,12.60
2023-05-07T20:46:07.617Z,12.60
2023-05-07T20:48:34.989Z,12.70
2023-05-07T20:51:02.740Z,12.70
2023-05-07T20:53:31.350Z,12.80
2023-05-07T20:55:58.979Z,12.80
2023-05-07T20:58:28.128Z,12.90
2023-05-07T21:00:55.930Z,13.00
2023-05-07T21:03:22.711Z,13.00
2023-05-07T21:05:57.511Z,13.00
2023-05-07T21:08:24.287Z,13.10
2023-05-07T21:10:52.788Z,13.10
2023-05-07T21:13:19.801Z,13.10
2023-05-07T21:15:46.513Z,12.90
2023-05-07T21:18:13.652Z,12.80
2023-05-07T21:20:40.640Z,12.80
2023-05-07T21:23:07.550Z,12.70
2023-05-07T21:25:37.768Z,12.60
2023-05-07T21:28:08.614Z,12.60
2023-05-07T21:30:36.012Z,12.60
2023-05-07T21:33:02.904Z,12.70
2023-05-07T21:35:29.593Z,12.70
2023-05-07T21:37:56.412Z,12.70
2023-05-07T21:40:23.074Z,12.60
2023-05-07T21:42:49.738Z,12.50
2023-05-07T21:45:16.515Z,12.50
2023-05-07T21:47:43.167Z,12.40
2023-05-07T21:50:10.616Z,12.40
2023-05-07T21:52:37.788Z,12.50
2023-05-07T21:55:04.839Z,12.50
2023-05-07T21:57:31.584Z,12.40
2023-05-07T21:59:58.292Z,12.40
2023-05-07T22:02:25.752Z,12.40
2023-05-07T22:04:52.714Z,12.40
2023-05-07T22:07:19.473Z,12.40
2023-05-07T22:09:46.154Z,12.40
2023-05-07T22:12:12.843Z,12.40
2023-05-07T22:14:39.496Z,12.40
2023-05-07T22:17:06.252Z,12.40
2023-05-07T22:19:33.026Z,12.30
2023-05-07T22:21:59.796Z,12.30
2023-05-07T22:24:26.461Z,12.30
2023-05-07T22:26:53.148Z,12.30
2023-05-07T22:29:21.185Z,12.30
2023-05-07T22:31:47.841Z,12.30
2023-05-07T22:34:14.562Z,12.40
2023-05-07T22:36:41.371Z,12.30
2023-05-07T22:39:09.856Z,12.20
2023-05-07T22:41:36.855Z,12.10
2023-05-07T22:44:03.589Z,12.20
2023-05-07T22:46:31.165Z,12.10
2023-05-07T22:48:57.936Z,12.10
2023-05-07T22:51:24.598Z,12.10
2023-05-07T22:53:51.265Z,12.00
2023-05-07T22:56:17.975Z,12.00
2023-05-07T22:58:44.717Z,12.00
2023-05-07T23:01:13.771Z,12.00
2023-05-07T23:03:40.957Z,12.10
2023-05-07T23:06:08.076Z,12.10
2023-05-07T23:08:35.156Z,12.20
2023-05-07T23:11:01.894Z,12.30
2023-05-07T23:13:28.599Z,12.20
2023-05-07T23:15:55.324Z,12.30
2023-05-07T23:18:22.034Z,12.30
2023-05-07T23:20:48.698Z,12.50
2023-05-07T23:23:15.433Z,12.60
2023-05-07T23:25:42.092Z,12.70
2023-05-07T23:28:08.736Z,12.70
2023-05-07T23:30:35.468Z,12.80
2023-05-07T23:33:02.348Z,12.70
2023-05-07T23:35:29.029Z,12.70
2023-05-07T23:37:55.760Z,12.60
2023-05-07T23:40:22.582Z,12.50
2023-05-07T23:42:49.320Z,12.30
2023-05-07T23:45:16.154Z,12.30
2023-05-07T23:47:42.883Z,12.30
2023-05-07T23:50:09.917Z,12.30
2023-05-07T23:52:36.845Z,12.40
2023-05-07T23:55:03.754Z,12.50
2023-05-07T23:57:30.521Z,12.50
2023-05-07T23:59:58.991Z,12.50
